createdAt,value
2022-10-19T00:01:43.350Z,10.30
2022-10-19T00:06:43.109Z,9.60
2022-10-19T00:11:43.180Z,9.23
2022-10-19T00:16:44.056Z,9.15
2022-10-19T00:21:42.371Z,8.75
2022-10-19T00:26:38.117Z,8.93
2022-10-19T00:31:32.604Z,9.10
2022-10-19T00:36:32.341Z,9.50
2022-10-19T00:41:35.195Z,9.00
2022-10-19T00:46:37.052Z,8.10
2022-10-19T00:51:35.649Z,9.02
2022-10-19T00:56:31.224Z,9.13
2022-10-19T01:01:29.605Z,8.77
2022-10-19T01:06:29.798Z,8.68
2022-10-19T01:11:43.731Z,7.93
2022-10-19T01:17:00.616Z,7.43
2022-10-19T01:22:21.401Z,8.15
2022-10-19T01:27:46.483Z,8.23
2022-10-19T01:32:43.543Z,8.48
2022-10-19T01:38:07.521Z,8.43
2022-10-19T01:43:32.293Z,8.77
2022-10-19T01:48:38.518Z,8.05
2022-10-19T01:53:41.364Z,7.95
2022-10-19T01:58:40.457Z,7.93
2022-10-19T02:03:37.692Z,7.43
2022-10-19T02:08:40.336Z,7.60
2022-10-19T02:13:37.456Z,7.65
2022-10-19T02:18:36.734Z,8.40
2022-10-19T02:23:33.664Z,7.38
2022-10-19T02:28:29.317Z,7.47
2022-10-19T02:33:25.269Z,7.75
2022-10-19T02:38:28.351Z,7.47
2022-10-19T02:43:27.294Z,7.72
2022-10-19T02:48:26.159Z,7.88
2022-10-19T02:53:19.444Z,7.60
2022-10-19T02:58:12.831Z,6.93
2022-10-19T03:03:06.651Z,7.55
2022-10-19T03:07:59.444Z,6.93
2022-10-19T03:12:53.432Z,7.35
2022-10-19T03:17:46.630Z,7.53
2022-10-19T03:22:42.225Z,6.70
2022-10-19T03:27:37.096Z,6.72
2022-10-19T03:32:30.912Z,6.60
2022-10-19T03:37:24.512Z,7.05
2022-10-19T03:42:19.196Z,6.07
2022-10-19T03:47:12.172Z,7.20
2022-10-19T03:52:06.312Z,6.72
2022-10-19T03:57:06.132Z,7.53
2022-10-19T04:02:06.505Z,6.38
2022-10-19T04:06:59.731Z,6.80
2022-10-19T04:11:53.341Z,6.55
2022-10-19T04:16:46.584Z,7.18
2022-10-19T04:21:41.765Z,6.70
2022-10-19T04:26:40.962Z,6.57
2022-10-19T04:31:34.395Z,6.95
2022-10-19T04:36:30.675Z,6.45
2022-10-19T04:41:24.439Z,6.40
2022-10-19T04:46:21.536Z,6.75
2022-10-19T04:51:15.835Z,6.63
2022-10-19T04:56:15.638Z,6.93
2022-10-19T05:01:11.743Z,6.38
2022-10-19T05:06:06.871Z,6.22
2022-10-19T05:11:09.194Z,6.47
2022-10-19T05:16:03.289Z,6.43
2022-10-19T05:21:03.036Z,10.00
2022-10-19T05:26:01.610Z,13.90
2022-10-19T05:30:55.150Z,13.60
2022-10-19T05:35:49.081Z,13.25
2022-10-19T05:40:50.278Z,14.02
2022-10-19T05:45:46.847Z,13.60
2022-10-19T05:50:43.907Z,13.80
2022-10-19T05:55:37.587Z,13.27
2022-10-19T06:00:31.029Z,12.73
2022-10-19T06:05:24.999Z,10.65
2022-10-19T06:10:18.778Z,9.68
2022-10-19T06:15:12.893Z,10.27
2022-10-19T06:20:07.608Z,9.57
2022-10-19T06:25:01.554Z,10.32
2022-10-19T06:29:55.703Z,10.82
2022-10-19T06:34:49.981Z,8.82
2022-10-19T06:39:44.864Z,9.18
2022-10-19T06:44:38.494Z,8.63
2022-10-19T06:49:32.337Z,10.27
2022-10-19T06:54:26.494Z,9.50
2022-10-19T06:59:19.615Z,8.75
2022-10-19T07:04:12.383Z,10.18
2022-10-19T07:09:05.271Z,9.13
2022-10-19T07:13:58.743Z,9.98
2022-10-19T07:18:57.366Z,12.05
2022-10-19T07:23:50.424Z,10.63
2022-10-19T07:28:46.469Z,10.85
2022-10-19T07:33:40.031Z,13.93
2022-10-19T07:38:34.246Z,15.05
2022-10-19T07:43:28.029Z,12.07
2022-10-19T07:48:21.924Z,13.75
2022-10-19T07:53:16.278Z,14.32
2022-10-19T07:58:08.820Z,13.20
2022-10-19T08:03:43.272Z,12.45
2022-10-19T08:08:15.469Z,13.32
2022-10-19T08:13:09.522Z,11.40
2022-10-19T08:18:03.428Z,12.95
2022-10-19T08:22:59.019Z,11.23
2022-10-19T08:27:53.143Z,14.73
2022-10-19T08:32:47.030Z,14.15
2022-10-19T08:37:45.087Z,14.95
2022-10-19T08:43:03.455Z,16.63
2022-10-19T08:48:28.309Z,15.80
2022-10-19T08:53:45.188Z,16.88
2022-10-19T08:58:37.956Z,17.42
2022-10-19T09:03:56.516Z,17.02
2022-10-19T09:08:57.055Z,15.80
2022-10-19T09:14:04.874Z,18.58
2022-10-19T09:18:59.162Z,17.52
2022-10-19T09:24:10.229Z,15.82
2022-10-19T09:29:18.306Z,16.73
2022-10-19T09:34:23.706Z,14.82
2022-10-19T09:39:16.580Z,18.20
2022-10-19T09:44:10.758Z,18.27
2022-10-19T09:49:05.753Z,18.33
2022-10-19T09:54:00.535Z,18.00
2022-10-19T09:58:58.139Z,21.10
2022-10-19T10:03:53.882Z,20.40
2022-10-19T10:08:58.281Z,21.60
2022-10-19T10:13:54.817Z,25.30
2022-10-19T10:18:59.732Z,22.63
2022-10-19T10:24:01.750Z,26.77
2022-10-19T10:29:01.573Z,27.25
2022-10-19T10:34:28.634Z,27.77
2022-10-19T10:39:30.842Z,26.48
2022-10-19T10:44:34.198Z,24.80
2022-10-19T10:49:36.197Z,22.50
2022-10-19T10:54:32.158Z,23.00
2022-10-19T10:59:32.709Z,29.40
2022-10-19T11:04:32.805Z,26.40
2022-10-19T11:09:43.000Z,32.92
2022-10-19T11:14:54.507Z,31.10
2022-10-19T11:19:53.728Z,30.52
2022-10-19T11:24:56.021Z,32.33
2022-10-19T11:30:21.249Z,33.75
2022-10-19T11:35:29.631Z,32.90
2022-10-19T11:40:54.274Z,32.38
2022-10-19T11:45:57.273Z,31.58
2022-10-19T11:51:21.780Z,33.35
2022-10-19T11:56:39.156Z,33.97
2022-10-19T12:01:53.286Z,34.63
2022-10-19T12:07:02.103Z,39.05
2022-10-19T12:12:33.153Z,37.80
2022-10-19T12:17:31.732Z,38.72
2022-10-19T12:22:29.691Z,37.10
2022-10-19T12:27:34.441Z,35.83
2022-10-19T12:32:29.752Z,35.55
2022-10-19T12:37:35.852Z,36.58
2022-10-19T12:42:52.375Z,38.33
2022-10-19T12:48:11.892Z,38.15
2022-10-19T12:53:05.641Z,34.35
2022-10-19T12:58:01.533Z,36.10
2022-10-19T13:03:14.955Z,34.53
2022-10-19T13:08:12.088Z,35.42
2022-10-19T13:13:59.608Z,35.80
2022-10-19T13:19:08.539Z,33.20
2022-10-19T13:24:26.115Z,34.15
2022-10-19T13:29:27.731Z,33.22
2022-10-19T13:34:21.145Z,33.22
2022-10-19T13:39:16.224Z,32.47
2022-10-19T13:44:12.997Z,32.17
2022-10-19T13:49:40.987Z,32.28
2022-10-19T13:55:01.076Z,30.45
2022-10-19T14:00:06.293Z,31.25
2022-10-19T14:05:34.179Z,30.98
2022-10-19T14:10:33.128Z,30.52
2022-10-19T14:15:55.101Z,31.73
2022-10-19T14:21:04.100Z,29.23
2022-10-19T14:26:04.473Z,29.20
2022-10-19T14:31:04.732Z,29.33
2022-10-19T14:35:58.967Z,29.02
2022-10-19T14:40:52.419Z,27.13
2022-10-19T14:45:45.700Z,28.52
2022-10-19T14:50:55.475Z,27.02
2022-10-19T14:55:51.502Z,28.92
2022-10-19T15:00:49.207Z,28.70
2022-10-19T15:05:50.171Z,31.30
2022-10-19T15:15:38.377Z,28.02
2022-10-19T15:20:43.960Z,29.35
2022-10-19T15:25:59.296Z,29.42
2022-10-19T15:31:00.705Z,28.55
2022-10-19T15:36:04.419Z,27.00
2022-10-19T15:41:02.648Z,26.42
2022-10-19T15:46:21.804Z,26.67
2022-10-19T15:51:26.483Z,23.92
2022-10-19T15:56:20.763Z,24.95
2022-10-19T16:01:23.164Z,22.58
2022-10-19T16:06:19.093Z,23.17
2022-10-19T16:11:14.984Z,21.92
2022-10-19T16:16:13.551Z,22.02
2022-10-19T16:21:07.668Z,21.85
2022-10-19T16:26:02.169Z,20.75
2022-10-19T16:30:57.743Z,20.75
2022-10-19T16:35:52.075Z,20.02
2022-10-19T16:40:45.665Z,18.92
2022-10-19T16:45:43.254Z,19.40
2022-10-19T16:50:36.796Z,19.52
2022-10-19T16:55:31.162Z,19.15
2022-10-19T17:00:25.075Z,20.58
2022-10-19T17:05:18.515Z,22.08
2022-10-19T17:10:12.567Z,20.65
2022-10-19T17:20:21.102Z,19.80
2022-10-19T17:25:14.508Z,18.20
2022-10-19T17:30:12.450Z,18.60
2022-10-19T17:35:09.724Z,18.63
2022-10-19T17:40:03.051Z,16.88
2022-10-19T17:44:56.731Z,17.58
2022-10-19T17:49:49.690Z,17.30
2022-10-19T17:54:54.509Z,16.80
2022-10-19T18:00:00.878Z,17.33
2022-10-19T18:04:54.650Z,17.67
2022-10-19T18:09:48.691Z,16.27
2022-10-19T18:14:50.313Z,15.98
2022-10-19T18:19:45.520Z,17.15
2022-10-19T18:24:40.213Z,16.90
2022-10-19T18:29:32.918Z,17.13
2022-10-19T18:34:27.326Z,16.35
2022-10-19T18:39:20.936Z,16.00
2022-10-19T18:44:14.088Z,15.02
2022-10-19T18:49:09.179Z,14.45
2022-10-19T18:54:02.538Z,13.65
2022-10-19T18:58:56.485Z,13.57
2022-10-19T19:03:51.278Z,16.33
2022-10-19T19:08:45.300Z,18.42
2022-10-19T19:13:40.470Z,16.92
2022-10-19T19:18:34.871Z,15.30
2022-10-19T19:23:32.667Z,16.08
2022-10-19T19:28:26.830Z,15.93
2022-10-19T19:33:20.870Z,14.82
2022-10-19T19:38:15.553Z,16.33
2022-10-19T19:43:10.071Z,16.63
2022-10-19T19:48:03.620Z,15.90
2022-10-19T19:53:00.252Z,14.85
2022-10-19T19:57:55.149Z,14.98
2022-10-19T20:02:53.640Z,14.65
2022-10-19T20:07:47.606Z,13.98
2022-10-19T20:12:40.947Z,14.27
2022-10-19T20:17:34.347Z,13.18
2022-10-19T20:22:28.665Z,13.75
2022-10-19T20:27:22.219Z,13.55
2022-10-19T20:32:15.621Z,13.30
2022-10-19T20:37:10.291Z,12.98
2022-10-19T20:42:03.600Z,12.50
2022-10-19T20:46:57.810Z,12.90
2022-10-19T20:51:54.082Z,12.35
2022-10-19T20:56:47.570Z,13.10
2022-10-19T21:01:42.568Z,11.65
2022-10-19T21:06:38.389Z,11.60
2022-10-19T21:11:34.740Z,11.68
2022-10-19T21:16:30.424Z,11.70
2022-10-19T21:21:25.886Z,10.82
2022-10-19T21:26:19.286Z,10.40
2022-10-19T21:31:13.186Z,10.57
2022-10-19T21:36:09.008Z,10.45
2022-10-19T21:41:05.876Z,10.25
2022-10-19T21:46:02.544Z,10.55
2022-10-19T21:50:55.941Z,12.02
2022-10-19T21:55:49.524Z,10.70
2022-10-19T22:00:42.804Z,11.02
2022-10-19T22:05:37.094Z,9.77
2022-10-19T22:10:30.460Z,10.60
2022-10-19T22:15:24.821Z,10.35
2022-10-19T22:20:18.893Z,10.15
2022-10-19T22:25:12.452Z,9.20
2022-10-19T22:30:08.573Z,10.95
2022-10-19T22:35:01.825Z,10.60
2022-10-19T22:39:58.920Z,9.82
2022-10-19T22:45:08.135Z,10.15
2022-10-19T22:50:03.082Z,11.00
2022-10-19T22:54:56.663Z,9.60
2022-10-19T22:59:50.273Z,9.70
2022-10-19T23:04:44.446Z,10.40
2022-10-19T23:09:37.275Z,10.13
2022-10-19T23:14:30.639Z,9.13
2022-10-19T23:19:24.785Z,9.65
2022-10-19T23:24:18.652Z,9.75
2022-10-19T23:29:12.586Z,10.00
2022-10-19T23:34:05.430Z,10.73
2022-10-19T23:38:59.482Z,11.23
2022-10-19T23:43:53.174Z,10.68
2022-10-19T23:48:47.061Z,10.75
2022-10-19T23:53:42.406Z,10.68
2022-10-19T23:58:35.925Z,11.23
